This is the latest recevied weather packets stored in our database for station/object N3LF. If no packets are shown the sender has not sent any weather packets the latest 10 day(s).
| Time | Temp. | Humidity | Pressure | Rain* | Wind** | Luminosity | Snow |
|---|---|---|---|---|---|---|---|
| 1777502006 | 21.11° C | 65% | 1015.2 hPa | 0 mm | - | 213 W/m² | - |
| 1777501704 | 21.11° C | 65% | 1015 hPa | 0 mm | - | 259 W/m² | - |
| 1777501401 | 21.67° C | 62% | 1015.3 hPa | 0 mm | - | 276 W/m² | - |
| 1777501098 | 21.11° C | 64% | 1015.4 hPa | 0 mm | - | 294 W/m² | - |
| 1777500796 | 21.11° C | 63% | 1015.5 hPa | 0 mm | - | 242 W/m² | - |
| 1777500494 | 20.56° C | 66% | 1015.5 hPa | 0 mm | - | 249 W/m² | - |
| 1777500189 | 20.56° C | 66% | 1015.5 hPa | 0 mm | - | 98 W/m² | - |
| 1777499887 | 20° C | 66% | 1015.2 hPa | 0 mm | - | 309 W/m² | - |
| 1777499583 | 20.56° C | 65% | 1015.5 hPa | 0 mm | - | 190 W/m² | - |
| 1777499280 | 20° C | 67% | 1015.5 hPa | 0 mm | - | 219 W/m² | - |
| 1777498978 | 20.56° C | 66% | 1015.5 hPa | 0 mm | - | 341 W/m² | - |
| 1777498674 | 21.11° C | 65% | 1015.5 hPa | 0 mm | - | 119 W/m² | - |
| 1777498370 | 21.11° C | 65% | 1015.7 hPa | 0 mm | - | 180 W/m² | - |
| 1777498068 | 20.56° C | 66% | 1015.7 hPa | 0 mm | - | 414 W/m² | - |
| 1777497764 | 20.56° C | 66% | 1015.8 hPa | 0 mm | - | 205 W/m² | - |
| 1777497461 | 20.56° C | 68% | 1015.6 hPa | 0 mm | - | 165 W/m² | - |
| 1777497157 | 21.67° C | 65% | 1015.5 hPa | 0 mm | - | 469 W/m² | - |
| 1777496854 | 21.11° C | 67% | 1015.8 hPa | 0 mm | - | 474 W/m² | - |
| 1777496551 | 21.67° C | 67% | 1015.7 hPa | 0 mm | - | 310 W/m² | - |
| 1777496247 | 20.56° C | 66% | 1015.8 hPa | 0 mm | - | 487 W/m² | - |
| 1777495943 | 20.56° C | 68% | 1015.8 hPa | 0 mm | - | 449 W/m² | - |
| 1777495639 | 20.56° C | 69% | 1016.2 hPa | 0 mm | - | 191 W/m² | - |
| 1777495335 | 20.56° C | 66% | 1016.2 hPa | 0 mm | - | 355 W/m² | - |
| 1777495033 | 20.56° C | 65% | 1016.3 hPa | 0 mm | - | 671 W/m² | - |
| 1777494730 | 20.56° C | 66% | 1016.1 hPa | 0 mm | - | 547 W/m² | - |
* Rain latest hour (hover to see other rain measurements)
** Current wind speed in m/s (hover to see current wind gust speed)